Time;durP1;ratioP1;P1;durP2;ratioP2;P2;SDS_P1;SDS_P2;PMS_P1;PMS_P2;Temp;Humidity;BMP_temperature;BMP_pressure;BME280_temperature;BME280_humidity;BME280_pressure;Samples;Min_cycle;Max_cycle;Signal;HPM_P1;HPM_P2
2023/08/01 00:00:34;;;;;;;3.08;2.58;;;23.30;59.40;;;;;;4982367;28;20240;-80
2023/08/01 00:03:01;;;;;;;2.83;2.50;;;23.30;59.50;;;;;;4998636;28;20220;-80
2023/08/01 00:05:28;;;;;;;3.40;2.53;;;23.30;59.40;;;;;;4998135;28;20193;-80
2023/08/01 00:07:55;;;;;;;3.33;2.75;;;23.30;59.50;;;;;;4998344;28;20251;-80
2023/08/01 00:10:23;;;;;;;2.90;2.40;;;23.30;59.40;;;;;;4982148;28;20227;-80
2023/08/01 00:12:50;;;;;;;3.40;2.60;;;23.20;59.40;;;;;;4998180;28;20283;-80
2023/08/01 00:15:17;;;;;;;3.38;2.67;;;23.20;59.40;;;;;;4998164;28;20204;-80
2023/08/01 00:17:46;;;;;;;2.80;2.42;;;23.20;59.40;;;;;;4997825;28;20595;-80
2023/08/01 00:20:13;;;;;;;2.60;2.35;;;23.20;59.40;;;;;;4997549;28;20749;-80
2023/08/01 00:22:40;;;;;;;2.80;2.50;;;23.20;59.50;;;;;;4982232;28;20278;-80
2023/08/01 00:25:08;;;;;;;3.05;2.35;;;23.20;59.40;;;;;;4997343;28;20200;-80
2023/08/01 00:27:35;;;;;;;2.75;2.50;;;23.20;59.50;;;;;;4981304;28;20287;-80
2023/08/01 00:30:02;;;;;;;3.00;2.40;;;23.10;59.40;;;;;;4997399;28;20201;-80
2023/08/01 00:32:29;;;;;;;2.95;2.30;;;23.20;59.60;;;;;;4997295;28;20227;-80
2023/08/01 00:34:57;;;;;;;2.58;2.38;;;23.20;59.60;;;;;;4997322;28;20208;-80
2023/08/01 00:37:25;;;;;;;3.00;2.70;;;23.20;59.60;;;;;;4996925;28;20217;-80
2023/08/01 00:39:52;;;;;;;2.80;2.30;;;23.10;59.50;;;;;;4997701;28;20204;-80
2023/08/01 00:42:19;;;;;;;3.13;2.42;;;23.10;59.60;;;;;;4997111;28;20205;-80
2023/08/01 00:44:48;;;;;;;2.72;2.35;;;23.10;59.60;;;;;;4998115;28;20192;-80
2023/08/01 00:47:15;;;;;;;2.60;2.40;;;23.10;59.60;;;;;;4997920;28;20197;-80
2023/08/01 00:49:42;;;;;;;2.55;2.35;;;23.10;59.60;;;;;;4999026;28;20208;-80
2023/08/01 00:52:11;;;;;;;2.50;2.30;;;23.10;59.60;;;;;;4989839;28;20224;-80
2023/08/01 00:54:38;;;;;;;3.03;2.50;;;23.10;59.60;;;;;;4998850;28;20252;-80
2023/08/01 00:57:06;;;;;;;2.88;2.38;;;23.10;59.60;;;;;;4997052;28;20224;-80
2023/08/01 00:59:34;;;;;;;3.35;2.53;;;23.10;59.70;;;;;;4996804;28;20208;-80
2023/08/01 01:02:01;;;;;;;2.65;2.20;;;23.00;59.60;;;;;;4996806;28;20270;-80
2023/08/01 01:04:29;;;;;;;2.55;2.35;;;23.10;59.70;;;;;;4996704;28;20293;-80
2023/08/01 01:06:59;;;;;;;2.97;2.28;;;23.10;59.70;;;;;;4996872;28;20192;-80
2023/08/01 01:09:29;;;;;;;2.90;2.60;;;23.10;59.70;;;;;;4997046;28;20200;-80
2023/08/01 01:11:56;;;;;;;2.30;2.10;;;23.00;59.60;;;;;;4997349;28;20246;-80
2023/08/01 01:14:23;;;;;;;3.25;2.30;;;23.10;59.70;;;;;;4997452;28;20207;-81
2023/08/01 01:16:51;;;;;;;2.47;2.20;;;23.10;59.80;;;;;;5000772;28;20323;-81
2023/08/01 01:19:18;;;;;;;2.33;2.13;;;23.00;59.70;;;;;;5018715;28;20564;-81
2023/08/01 01:21:47;;;;;;;2.58;2.20;;;23.00;59.70;;;;;;5001033;28;20216;-81
2023/08/01 01:24:14;;;;;;;2.97;2.40;;;23.00;59.60;;;;;;5001457;28;20205;-81
2023/08/01 01:26:41;;;;;;;2.42;2.20;;;23.00;59.70;;;;;;5000545;28;20201;-81
2023/08/01 01:29:09;;;;;;;2.78;2.42;;;23.00;59.70;;;;;;5016685;28;20205;-81
2023/08/01 01:31:36;;;;;;;2.83;2.33;;;23.00;59.70;;;;;;5000735;28;20227;-81
2023/08/01 01:34:03;;;;;;;2.90;2.60;;;23.10;59.80;;;;;;5001316;28;20287;-81
2023/08/01 01:36:30;;;;;;;2.60;2.28;;;23.00;59.70;;;;;;5000637;28;20213;-81
2023/08/01 01:38:58;;;;;;;2.83;2.40;;;23.00;59.70;;;;;;5000668;28;20199;-81
2023/08/01 01:41:25;;;;;;;2.50;2.30;;;23.00;59.60;;;;;;5000518;28;20209;-81
2023/08/01 01:43:52;;;;;;;3.75;2.40;;;23.00;59.60;;;;;;5000744;28;20330;-81
2023/08/01 01:46:19;;;;;;;2.60;2.33;;;23.00;59.70;;;;;;5001318;28;20594;-81
2023/08/01 01:48:46;;;;;;;2.30;2.10;;;23.00;59.70;;;;;;5000570;28;20201;-81
2023/08/01 01:51:13;;;;;;;3.40;2.45;;;23.00;59.80;;;;;;5000437;28;20217;-81
2023/08/01 01:53:41;;;;;;;2.20;2.00;;;23.00;59.80;;;;;;5001819;28;20655;-82
2023/08/01 01:56:09;;;;;;;2.85;2.40;;;23.00;59.80;;;;;;5000844;28;20250;-80
2023/08/01 01:58:36;;;;;;;2.30;2.13;;;23.00;59.70;;;;;;5000964;28;20197;-80
2023/08/01 02:01:04;;;;;;;2.65;2.45;;;23.00;59.80;;;;;;5000974;28;20224;-81
2023/08/01 02:03:31;;;;;;;2.60;2.40;;;23.00;59.70;;;;;;5001230;28;20288;-81
2023/08/01 02:05:59;;;;;;;3.10;2.45;;;22.90;59.70;;;;;;5001086;28;20203;-81
2023/08/01 02:08:27;;;;;;;3.08;2.33;;;23.00;59.80;;;;;;5000730;28;20205;-81
2023/08/01 02:10:55;;;;;;;2.90;2.53;;;23.00;59.80;;;;;;5000377;28;20243;-81
2023/08/01 02:13:23;;;;;;;2.55;2.35;;;23.00;59.80;;;;;;5000459;28;20204;-81
2023/08/01 02:15:50;;;;;;;2.75;2.30;;;23.00;59.80;;;;;;5000270;28;20204;-81
2023/08/01 02:18:17;;;;;;;2.30;2.10;;;22.90;59.70;;;;;;5001183;28;20208;-81
2023/08/01 02:20:44;;;;;;;2.60;2.40;;;23.00;59.80;;;;;;5000200;28;20220;-81
2023/08/01 02:23:11;;;;;;;2.85;2.60;;;22.90;59.70;;;;;;4999446;28;20208;-81
2023/08/01 02:25:39;;;;;;;2.53;2.10;;;23.00;59.80;;;;;;5000512;28;20196;-81
2023/08/01 02:28:07;;;;;;;2.80;2.60;;;23.00;59.80;;;;;;4998899;28;20196;-81
2023/08/01 02:30:37;;;;;;;2.67;2.47;;;22.90;59.70;;;;;;4999910;28;20217;-81
2023/08/01 02:33:04;;;;;;;2.80;2.50;;;22.90;59.70;;;;;;4999549;28;20710;-81
2023/08/01 02:35:32;;;;;;;2.45;2.22;;;22.90;59.80;;;;;;4999387;28;20211;-82
2023/08/01 02:37:59;;;;;;;2.80;2.50;;;22.90;59.60;;;;;;4999203;28;20216;-81
2023/08/01 02:40:26;;;;;;;2.60;2.40;;;22.90;59.60;;;;;;4998952;28;20256;-81
2023/08/01 02:42:54;;;;;;;3.55;2.50;;;22.90;59.60;;;;;;4998859;28;20204;-81
2023/08/01 02:45:21;;;;;;;2.30;2.10;;;22.90;59.60;;;;;;4982902;28;20600;-80
2023/08/01 02:47:51;;;;;;;2.42;2.22;;;22.90;59.40;;;;;;4998706;28;20188;-80
2023/08/01 02:50:18;;;;;;;2.75;2.35;;;23.00;59.60;;;;;;4999103;28;20224;-80
2023/08/01 02:52:46;;;;;;;2.85;2.55;;;23.00;59.50;;;;;;4998859;28;20205;-81
2023/08/01 02:55:13;;;;;;;2.55;2.35;;;22.90;59.40;;;;;;4999038;28;20713;-81
2023/08/01 02:57:40;;;;;;;2.88;2.40;;;22.90;59.50;;;;;;4999927;28;20747;-81
2023/08/01 03:00:11;;;;;;;2.35;2.10;;;22.90;59.50;;;;;;5000160;28;20201;-81
2023/08/01 03:02:39;;;;;;;2.80;2.50;;;22.90;59.40;;;;;;4999634;28;20540;-81
2023/08/01 03:05:09;;;;;;;3.47;2.35;;;22.80;59.40;;;;;;4999585;28;20232;-81
2023/08/01 03:07:36;;;;;;;2.75;2.55;;;22.90;59.60;;;;;;4999191;28;20193;-81
2023/08/01 03:10:04;;;;;;;2.65;2.28;;;22.90;59.70;;;;;;4983129;28;20205;-81
2023/08/01 03:12:31;;;;;;;2.50;2.30;;;22.90;59.60;;;;;;5017378;28;20180;-81
2023/08/01 03:14:58;;;;;;;3.38;2.72;;;22.90;59.60;;;;;;4998410;28;20201;-81
2023/08/01 03:17:25;;;;;;;2.53;2.33;;;22.90;59.50;;;;;;4998107;28;20746;-81
2023/08/01 03:19:52;;;;;;;2.60;2.40;;;23.00;59.50;;;;;;4998372;28;20201;-81
2023/08/01 03:22:20;;;;;;;2.30;2.10;;;23.00;59.40;;;;;;4998804;28;20201;-81
2023/08/01 03:24:48;;;;;;;2.85;2.30;;;23.00;59.10;;;;;;4998298;28;20201;-81
2023/08/01 03:27:15;;;;;;;3.25;2.30;;;23.20;59.00;;;;;;4999568;28;20287;-80
2023/08/01 03:29:42;;;;;;;2.58;2.38;;;23.20;58.90;;;;;;4983295;28;20197;-80
2023/08/01 03:32:09;;;;;;;3.38;2.40;;;23.30;58.70;;;;;;4999937;28;20225;-80
2023/08/01 03:34:38;;;;;;;2.63;2.42;;;23.30;58.60;;;;;;4999963;28;20203;-80
2023/08/01 03:37:06;;;;;;;2.65;2.45;;;23.30;58.50;;;;;;4998633;28;20221;-80
2023/08/01 03:39:34;;;;;;;2.47;2.28;;;23.30;58.50;;;;;;4997388;28;20200;-80
2023/08/01 03:42:02;;;;;;;3.08;2.55;;;23.40;58.50;;;;;;4998465;28;20220;-80
2023/08/01 03:44:29;;;;;;;2.33;2.13;;;23.40;58.40;;;;;;4967275;28;20200;-80
2023/08/01 03:46:56;;;;;;;2.55;2.35;;;23.40;58.40;;;;;;4982608;28;20597;-80
2023/08/01 03:49:23;;;;;;;2.75;2.38;;;23.40;58.40;;;;;;5023389;28;20208;-80
2023/08/01 03:51:50;;;;;;;2.58;2.38;;;23.40;58.30;;;;;;4999457;28;20634;-80
2023/08/01 03:54:17;;;;;;;2.80;2.50;;;23.40;58.30;;;;;;5015671;28;20185;-80
2023/08/01 03:56:46;;;;;;;2.58;2.38;;;23.50;58.30;;;;;;4998557;28;20227;-80
2023/08/01 03:59:14;;;;;;;2.83;2.35;;;23.40;58.10;;;;;;4997668;28;20582;-80
2023/08/01 04:01:41;;;;;;;2.85;2.55;;;23.50;58.20;;;;;;4997415;28;20687;-80
2023/08/01 04:04:08;;;;;;;3.03;2.33;;;23.50;58.20;;;;;;4997603;28;20200;-80
2023/08/01 04:06:35;;;;;;;2.40;2.20;;;23.50;58.30;;;;;;4997422;28;20205;-80
2023/08/01 04:09:02;;;;;;;2.72;2.47;;;23.50;58.20;;;;;;4997945;28;20601;-80
2023/08/01 04:11:29;;;;;;;2.55;2.35;;;23.50;58.20;;;;;;4998280;28;20247;-80
2023/08/01 04:13:58;;;;;;;2.78;2.35;;;23.50;58.10;;;;;;4997611;28;20197;-80
2023/08/01 04:16:25;;;;;;;2.65;2.45;;;23.50;58.10;;;;;;4998036;28;20208;-81
2023/08/01 04:18:52;;;;;;;2.40;2.20;;;23.50;58.00;;;;;;4997489;28;20587;-81
2023/08/01 04:21:19;;;;;;;3.75;2.63;;;23.50;57.90;;;;;;4998110;28;20220;-81
2023/08/01 04:23:46;;;;;;;3.05;2.30;;;23.50;58.00;;;;;;4997293;28;20246;-81
2023/08/01 04:26:13;;;;;;;2.65;2.45;;;23.50;58.10;;;;;;4997263;28;20291;-81
2023/08/01 04:28:40;;;;;;;2.50;2.30;;;23.50;58.00;;;;;;4997275;28;20243;-81
2023/08/01 04:31:08;;;;;;;2.60;2.40;;;23.60;58.10;;;;;;4997245;28;20220;-80
2023/08/01 04:33:35;;;;;;;2.80;2.60;;;23.50;57.90;;;;;;4997085;28;20625;-81
2023/08/01 04:36:02;;;;;;;2.83;2.63;;;23.50;57.90;;;;;;4996937;28;20203;-82
2023/08/01 04:38:29;;;;;;;2.47;2.28;;;23.50;57.90;;;;;;4997567;28;20216;-82
2023/08/01 04:40:56;;;;;;;2.90;2.40;;;23.50;58.20;;;;;;4997922;28;20579;-82
2023/08/01 04:43:23;;;;;;;3.78;2.60;;;23.50;58.00;;;;;;4980648;28;20247;-82
2023/08/01 04:45:50;;;;;;;4.18;2.70;;;23.50;58.00;;;;;;4997532;28;20201;-82
2023/08/01 04:48:19;;;;;;;3.85;2.65;;;23.40;57.80;;;;;;4996972;28;20644;-82
2023/08/01 04:50:46;;;;;;;3.65;3.10;;;23.30;57.90;;;;;;4996883;28;20232;-82
2023/08/01 04:53:13;;;;;;;4.40;3.17;;;23.30;58.20;;;;;;4997371;28;20233;-82
2023/08/01 04:55:41;;;;;;;5.65;3.13;;;23.30;58.10;;;;;;4981290;28;20204;-82
2023/08/01 04:58:08;;;;;;;3.67;3.10;;;23.20;58.00;;;;;;4996817;28;20588;-82
2023/08/01 05:00:35;;;;;;;5.05;3.00;;;23.20;58.10;;;;;;4997660;28;20254;-82
2023/08/01 05:03:02;;;;;;;3.78;2.70;;;23.10;57.90;;;;;;4996780;28;20200;-82
2023/08/01 05:05:31;;;;;;;12.25;3.40;;;23.10;58.00;;;;;;4996897;28;20203;-82
2023/08/01 05:07:58;;;;;;;4.80;3.47;;;23.10;58.10;;;;;;4997067;28;20201;-82
2023/08/01 05:10:25;;;;;;;4.35;3.30;;;23.10;58.50;;;;;;5015169;28;20212;-82
2023/08/01 05:12:52;;;;;;;4.38;3.05;;;23.00;58.20;;;;;;4997242;28;20199;-82
2023/08/01 05:15:19;;;;;;;8.27;3.47;;;23.00;58.30;;;;;;4981277;28;20197;-81
2023/08/01 05:17:46;;;;;;;2.97;2.67;;;23.00;58.40;;;;;;4997242;28;20224;-81
2023/08/01 05:20:13;;;;;;;5.78;3.13;;;23.00;58.70;;;;;;4996939;28;20212;-81
2023/08/01 05:22:41;;;;;;;3.95;2.92;;;23.00;58.70;;;;;;4997203;28;20208;-81
2023/08/01 05:25:08;;;;;;;4.25;3.15;;;23.00;58.80;;;;;;4997127;28;20208;-81
2023/08/01 05:27:35;;;;;;;4.00;3.10;;;23.00;59.00;;;;;;4980399;28;20200;-81
2023/08/01 05:30:02;;;;;;;3.55;3.13;;;23.00;59.00;;;;;;4996587;28;20201;-81
2023/08/01 05:32:29;;;;;;;3.80;3.05;;;23.00;59.10;;;;;;4997194;28;20228;-81
2023/08/01 05:34:56;;;;;;;4.95;2.90;;;23.00;59.90;;;;;;5014564;28;20280;-81
2023/08/01 05:37:24;;;;;;;5.15;3.10;;;23.00;59.40;;;;;;4997122;28;20201;-81
2023/08/01 05:39:52;;;;;;;3.25;2.88;;;23.00;59.50;;;;;;4996800;28;20207;-81
2023/08/01 05:42:19;;;;;;;3.20;2.90;;;23.00;59.60;;;;;;4997401;28;20567;-83
2023/08/01 05:44:46;;;;;;;3.10;2.80;;;23.00;59.70;;;;;;4996762;28;20205;-81
2023/08/01 05:47:13;;;;;;;4.45;2.85;;;23.00;59.70;;;;;;4997552;28;20207;-81
2023/08/01 05:49:41;;;;;;;4.72;3.22;;;23.00;59.60;;;;;;4996457;28;20201;-81
2023/08/01 05:52:08;;;;;;;3.28;2.85;;;23.00;59.60;;;;;;4996847;28;20224;-81
2023/08/01 05:54:35;;;;;;;2.80;2.60;;;23.10;59.50;;;;;;4996643;28;20227;-81
2023/08/01 05:57:04;;;;;;;4.47;3.33;;;23.10;59.40;;;;;;4998241;28;20546;-82
2023/08/01 05:59:31;;;;;;;3.53;3.03;;;23.10;59.40;;;;;;4997780;28;20216;-81
2023/08/01 06:01:58;;;;;;;4.63;3.13;;;23.10;59.20;;;;;;4997893;28;20230;-81
2023/08/01 06:04:25;;;;;;;4.03;2.83;;;23.10;59.20;;;;;;5000815;28;20254;-81
2023/08/01 06:06:52;;;;;;;3.53;2.90;;;23.10;59.80;;;;;;5000998;28;20200;-82
2023/08/01 06:09:19;;;;;;;2.95;2.63;;;23.20;59.20;;;;;;5001175;28;20197;-82
2023/08/01 06:11:46;;;;;;;3.90;2.70;;;23.20;59.10;;;;;;5000536;28;20300;-82
2023/08/01 06:14:15;;;;;;;3.60;2.90;;;23.10;59.00;;;;;;5000433;28;20197;-82
2023/08/01 06:16:42;;;;;;;3.42;2.85;;;23.20;59.00;;;;;;5041526;23;20332;-81
2023/08/01 06:19:09;;;;;;;3.75;2.90;;;23.20;59.00;;;;;;4983881;28;20225;-81
2023/08/01 06:21:36;;;;;;;3.53;2.80;;;23.30;59.00;;;;;;4967842;28;20237;-81
2023/08/01 06:24:03;;;;;;;3.08;2.78;;;23.30;58.90;;;;;;4983495;28;20219;-81
2023/08/01 06:26:31;;;;;;;3.47;2.63;;;23.30;58.90;;;;;;4984537;28;20240;-81
2023/08/01 06:28:57;;;;;;;3.45;2.70;;;23.30;58.90;;;;;;4981500;28;20201;-81
2023/08/01 06:31:26;;;;;;;3.95;2.70;;;23.30;58.80;;;;;;4964130;28;20637;-81
2023/08/01 06:33:53;;;;;;;4.38;3.05;;;23.30;58.80;;;;;;4979994;28;20201;-81
2023/08/01 06:36:20;;;;;;;2.72;2.50;;;23.30;58.90;;;;;;4979862;28;20209;-80
2023/08/01 06:38:47;;;;;;;3.40;2.70;;;23.30;58.80;;;;;;4980284;28;20224;-80
2023/08/01 06:41:14;;;;;;;2.88;2.53;;;23.30;58.80;;;;;;4979956;28;20240;-80
2023/08/01 06:43:41;;;;;;;2.83;2.50;;;23.30;58.80;;;;;;4979633;28;20198;-80
2023/08/01 06:46:09;;;;;;;3.05;2.70;;;23.30;58.80;;;;;;4980131;28;20205;-80
2023/08/01 06:48:38;;;;;;;3.00;2.72;;;23.30;58.80;;;;;;4980741;28;20296;-80
2023/08/01 06:51:05;;;;;;;3.28;2.50;;;23.30;58.80;;;;;;4963480;28;20228;-80
2023/08/01 06:53:32;;;;;;;4.38;2.90;;;23.30;58.70;;;;;;4979188;28;20516;-80
2023/08/01 06:55:59;;;;;;;2.88;2.50;;;23.30;58.80;;;;;;4979185;28;20208;-80
2023/08/01 06:58:26;;;;;;;4.22;2.90;;;23.30;58.70;;;;;;4979117;28;20241;-80
2023/08/01 07:00:53;;;;;;;3.80;3.10;;;23.30;58.70;;;;;;4979081;28;20272;-80
2023/08/01 07:03:20;;;;;;;3.10;2.80;;;23.30;58.70;;;;;;4979315;28;20197;-80
2023/08/01 07:05:48;;;;;;;3.08;2.78;;;23.30;58.70;;;;;;4978996;28;20641;-80
2023/08/01 07:08:15;;;;;;;3.17;2.72;;;23.30;58.70;;;;;;4979028;28;20571;-80
2023/08/01 07:10:42;;;;;;;3.40;3.10;;;23.30;58.70;;;;;;4979303;28;20688;-80
2023/08/01 07:13:09;;;;;;;3.10;2.75;;;23.30;59.30;;;;;;4980035;28;20201;-80
2023/08/01 07:15:36;;;;;;;3.55;2.88;;;23.30;58.70;;;;;;4979638;28;20197;-80
2023/08/01 07:18:03;;;;;;;4.90;3.00;;;23.30;58.80;;;;;;4964117;28;20216;-80
2023/08/01 07:20:30;;;;;;;3.05;2.75;;;23.30;58.80;;;;;;4979730;28;20687;-80
2023/08/01 07:22:59;;;;;;;3.13;2.83;;;23.30;58.80;;;;;;4979360;28;20205;-80
2023/08/01 07:25:26;;;;;;;5.28;2.83;;;23.30;58.70;;;;;;4979110;28;20205;-80
2023/08/01 07:27:53;;;;;;;3.70;2.90;;;23.30;58.70;;;;;;4963075;28;20205;-80
2023/08/01 07:30:20;;;;;;;3.55;3.00;;;23.30;58.70;;;;;;4962628;28;20231;-80
2023/08/01 07:32:47;;;;;;;4.35;3.00;;;23.30;58.70;;;;;;4979577;28;20292;-80
2023/08/01 07:35:14;;;;;;;3.70;3.13;;;23.30;58.70;;;;;;4995604;28;20252;-80
2023/08/01 07:37:41;;;;;;;4.10;3.50;;;23.30;58.80;;;;;;4962581;28;20197;-80
2023/08/01 07:40:11;;;;;;;3.70;3.00;;;23.30;58.80;;;;;;4978699;28;20562;-80
2023/08/01 07:42:38;;;;;;;3.30;2.97;;;23.30;58.90;;;;;;4978400;28;20217;-80
2023/08/01 07:45:07;;;;;;;3.20;2.88;;;23.30;58.90;;;;;;4978265;28;20201;-80
2023/08/01 07:47:34;;;;;;;3.45;3.15;;;23.30;59.00;;;;;;4978529;28;20201;-80
2023/08/01 07:50:01;;;;;;;4.22;3.38;;;23.30;59.00;;;;;;4962297;28;20197;-80
2023/08/01 07:52:28;;;;;;;3.55;3.25;;;23.20;59.00;;;;;;4978840;28;20204;-80
2023/08/01 07:54:57;;;;;;;4.05;2.95;;;23.20;59.10;;;;;;4996180;28;20691;-80
2023/08/01 07:57:25;;;;;;;4.47;3.40;;;23.30;59.20;;;;;;4962762;28;20208;-80
2023/08/01 07:59:52;;;;;;;3.85;3.17;;;23.20;59.20;;;;;;4979107;28;20221;-80
2023/08/01 08:02:19;;;;;;;3.92;3.30;;;23.20;59.20;;;;;;4979075;28;20202;-80
2023/08/01 08:04:46;;;;;;;3.40;3.03;;;23.20;59.20;;;;;;4978115;28;20731;-80
2023/08/01 08:07:14;;;;;;;3.55;3.03;;;23.20;59.20;;;;;;4977898;28;20201;-80
2023/08/01 08:09:41;;;;;;;4.18;3.35;;;23.10;59.10;;;;;;4978027;28;20201;-80
2023/08/01 08:12:08;;;;;;;4.38;3.60;;;23.20;59.20;;;;;;4961645;28;20225;-80
2023/08/01 08:14:38;;;;;;;5.07;3.28;;;23.20;59.80;;;;;;4978172;28;20201;-80
2023/08/01 08:17:05;;;;;;;3.83;3.22;;;23.20;59.00;;;;;;4978002;28;20209;-80
2023/08/01 08:19:32;;;;;;;3.63;3.25;;;23.30;59.00;;;;;;4977978;28;20217;-80
2023/08/01 08:21:59;;;;;;;3.90;3.47;;;23.30;58.90;;;;;;4978409;28;20221;-80
2023/08/01 08:24:26;;;;;;;3.63;3.00;;;23.30;58.90;;;;;;4978114;28;20189;-80
2023/08/01 08:26:53;;;;;;;4.20;3.33;;;23.30;58.80;;;;;;4983207;28;20225;-80
2023/08/01 08:29:20;;;;;;;4.10;3.30;;;23.40;58.80;;;;;;4967327;28;20229;-80
2023/08/01 08:31:48;;;;;;;3.50;3.20;;;23.40;58.80;;;;;;4982435;28;20217;-80
2023/08/01 08:34:15;;;;;;;4.13;3.42;;;23.40;58.70;;;;;;4982915;28;20198;-80
2023/08/01 08:36:42;;;;;;;3.45;3.08;;;23.40;58.60;;;;;;4982626;28;20197;-80
2023/08/01 08:39:09;;;;;;;3.50;3.17;;;23.50;58.60;;;;;;4981910;28;20214;-80
2023/08/01 08:41:38;;;;;;;3.53;3.20;;;23.50;58.60;;;;;;4965587;28;20224;-80
2023/08/01 08:44:07;;;;;;;3.75;3.22;;;23.50;58.60;;;;;;4981775;28;20228;-80
2023/08/01 08:46:34;;;;;;;5.20;3.30;;;23.50;58.50;;;;;;4982084;28;20193;-80
2023/08/01 08:49:02;;;;;;;4.13;3.33;;;23.50;58.50;;;;;;4980691;28;20236;-80
2023/08/01 08:51:29;;;;;;;3.40;3.10;;;23.50;58.50;;;;;;4980735;28;20221;-80
2023/08/01 08:53:57;;;;;;;4.18;3.15;;;23.60;58.30;;;;;;4964599;28;20197;-80
2023/08/01 08:56:24;;;;;;;3.28;2.97;;;23.70;58.10;;;;;;4981007;28;20282;-80
2023/08/01 08:58:51;;;;;;;3.75;3.30;;;23.80;58.00;;;;;;4963710;28;20243;-81
2023/08/01 09:01:18;;;;;;;3.40;3.00;;;23.80;57.90;;;;;;4977213;28;20715;-80
2023/08/01 09:03:45;;;;;;;3.40;3.05;;;23.80;57.70;;;;;;4977943;28;20201;-80
2023/08/01 09:06:16;;;;;;;3.78;2.90;;;23.90;57.70;;;;;;4978587;28;20224;-80
2023/08/01 09:08:49;;;;;;;3.95;3.10;;;23.90;57.70;;;;;;4977312;28;20228;-80
2023/08/01 09:11:16;;;;;;;3.15;2.83;;;24.00;57.70;;;;;;4961722;28;20225;-80
2023/08/01 09:13:43;;;;;;;3.13;2.83;;;24.00;57.70;;;;;;4976897;28;20202;-80
2023/08/01 09:16:10;;;;;;;3.20;2.90;;;24.00;57.60;;;;;;4961240;28;20284;-80
2023/08/01 09:18:48;;;;;;;3.65;2.90;;;24.00;57.60;;;;;;4961341;28;20217;-80
2023/08/01 09:21:18;;;;;;;3.58;2.83;;;24.10;57.50;;;;;;4977065;28;20590;-80
2023/08/01 09:23:45;;;;;;;3.50;3.15;;;24.10;57.50;;;;;;4977415;28;20197;-80
2023/08/01 09:26:15;;;;;;;4.07;3.13;;;24.10;57.50;;;;;;4978178;28;20636;-80
2023/08/01 09:28:42;;;;;;;3.63;3.05;;;24.10;57.50;;;;;;4979621;28;20198;-80
2023/08/01 09:31:10;;;;;;;4.63;3.22;;;24.00;57.50;;;;;;4980134;28;20217;-80
2023/08/01 09:33:40;;;;;;;3.45;3.00;;;24.00;57.70;;;;;;4979743;28;20205;-80
2023/08/01 09:36:08;;;;;;;3.72;3.00;;;24.10;57.60;;;;;;4979666;28;20247;-80
2023/08/01 09:38:36;;;;;;;3.13;2.80;;;24.00;57.70;;;;;;4982851;28;20200;-80
2023/08/01 09:41:04;;;;;;;3.10;2.75;;;24.00;57.70;;;;;;4983058;28;20580;-80
2023/08/01 09:43:34;;;;;;;3.75;3.10;;;24.00;57.70;;;;;;4982799;28;20291;-80
2023/08/01 09:46:01;;;;;;;4.90;3.13;;;24.00;57.70;;;;;;4983480;28;20201;-81
2023/08/01 09:48:29;;;;;;;2.63;2.42;;;24.00;57.70;;;;;;5000698;28;20645;-81
2023/08/01 09:51:07;;;;;;;3.15;2.85;;;24.10;57.80;;;;;;4983219;28;20221;-80
2023/08/01 09:53:34;;;;;;;2.78;2.58;;;24.20;57.70;;;;;;4984262;28;20209;-80
2023/08/01 09:56:02;;;;;;;2.97;2.67;;;24.20;57.50;;;;;;4981649;28;20712;-80
2023/08/01 09:58:32;;;;;;;2.80;2.60;;;24.20;57.50;;;;;;4980407;28;20652;-80
2023/08/01 10:00:59;;;;;;;3.03;2.72;;;24.20;57.50;;;;;;4980196;28;20714;-80
2023/08/01 10:03:27;;;;;;;2.70;2.50;;;24.20;57.40;;;;;;4981796;28;20193;-80
2023/08/01 10:05:54;;;;;;;2.63;2.42;;;24.30;57.40;;;;;;4966477;28;20206;-80
2023/08/01 10:08:21;;;;;;;2.85;2.42;;;24.30;57.50;;;;;;4982524;28;20238;-80
2023/08/01 10:10:48;;;;;;;3.00;2.70;;;24.20;57.40;;;;;;4981696;28;20249;-80
2023/08/01 10:13:17;;;;;;;2.80;2.53;;;24.30;57.40;;;;;;4981653;28;20264;-80
2023/08/01 10:15:44;;;;;;;3.00;2.40;;;24.30;57.40;;;;;;4981341;28;20201;-80
2023/08/01 10:18:11;;;;;;;2.70;2.20;;;24.30;57.40;;;;;;4981883;28;20610;-80
2023/08/01 10:20:38;;;;;;;3.65;2.67;;;24.30;57.30;;;;;;4999419;28;20218;-80
2023/08/01 10:23:05;;;;;;;2.50;2.30;;;24.30;57.30;;;;;;4982045;28;20268;-80
2023/08/01 10:25:32;;;;;;;2.83;2.40;;;24.30;57.20;;;;;;4980827;28;20223;-80
2023/08/01 10:28:00;;;;;;;2.90;2.45;;;24.30;57.40;;;;;;4980565;28;20201;-80
2023/08/01 10:30:28;;;;;;;2.50;2.30;;;24.30;57.40;;;;;;4964222;28;20225;-80
2023/08/01 10:32:56;;;;;;;2.90;2.50;;;24.30;57.40;;;;;;4980368;28;20205;-80
2023/08/01 10:35:33;;;;;;;2.55;2.30;;;24.30;57.40;;;;;;4979878;28;20232;-80
2023/08/01 10:38:05;;;;;;;2.58;2.35;;;24.30;57.40;;;;;;4979846;28;20637;-80
2023/08/01 10:40:39;;;;;;;2.58;2.38;;;24.30;57.30;;;;;;4997353;28;20232;-80
2023/08/01 10:43:06;;;;;;;2.90;2.30;;;24.30;57.30;;;;;;4980974;28;20205;-80
2023/08/01 10:45:34;;;;;;;2.40;2.10;;;24.30;57.30;;;;;;4979682;28;20200;-80
2023/08/01 10:48:11;;;;;;;2.45;2.15;;;24.40;57.20;;;;;;4979259;28;20221;-80
2023/08/01 10:50:38;;;;;;;2.30;2.10;;;24.40;57.10;;;;;;4979872;28;20216;-80
2023/08/01 10:53:06;;;;;;;2.40;2.20;;;24.50;56.90;;;;;;4979597;28;20557;-80
2023/08/01 10:55:41;;;;;;;2.25;2.05;;;24.60;56.90;;;;;;4979550;28;20198;-80
2023/08/01 10:58:08;;;;;;;2.60;2.15;;;24.70;56.70;;;;;;4979524;28;20220;-80
2023/08/01 11:00:36;;;;;;;2.22;1.92;;;24.80;56.40;;;;;;4979260;28;20225;-80
2023/08/01 11:03:05;;;;;;;2.85;2.30;;;24.90;56.30;;;;;;4979321;28;20197;-78
2023/08/01 11:05:32;;;;;;;2.65;1.83;;;24.90;56.20;;;;;;4978822;28;20253;-78
2023/08/01 11:08:00;;;;;;;2.30;2.10;;;24.90;56.20;;;;;;4963166;28;20251;-78
2023/08/01 11:10:27;;;;;;;2.20;2.00;;;24.90;56.20;;;;;;4978883;28;20252;-78
2023/08/01 11:12:55;;;;;;;2.38;2.10;;;24.90;56.60;;;;;;4979741;28;20196;-78
2023/08/01 11:15:22;;;;;;;1.75;1.65;;;24.90;56.60;;;;;;4979085;28;20694;-78
2023/08/01 11:17:51;;;;;;;1.75;1.65;;;24.90;56.50;;;;;;4997380;28;20228;-78
2023/08/01 11:20:19;;;;;;;1.70;1.60;;;24.90;56.40;;;;;;4980141;28;20695;-78
2023/08/01 11:22:54;;;;;;;1.70;1.60;;;25.00;56.30;;;;;;4979540;28;20193;-78
2023/08/01 11:25:21;;;;;;;1.88;1.65;;;25.00;56.20;;;;;;4978680;28;20228;-78
2023/08/01 11:27:48;;;;;;;1.90;1.80;;;25.00;56.10;;;;;;4977729;28;20578;-78
2023/08/01 11:30:15;;;;;;;1.60;1.50;;;25.10;56.00;;;;;;4996171;28;20212;-78
2023/08/01 11:32:42;;;;;;;1.92;1.80;;;25.10;55.90;;;;;;4979246;28;20572;-78
2023/08/01 11:35:18;;;;;;;1.70;1.60;;;25.10;55.70;;;;;;4979601;28;20205;-78
2023/08/01 11:37:45;;;;;;;1.70;1.60;;;25.10;55.70;;;;;;4996773;28;20181;-78
2023/08/01 11:40:12;;;;;;;1.63;1.52;;;25.10;55.70;;;;;;4996016;28;20652;-78
2023/08/01 11:42:40;;;;;;;1.90;1.60;;;25.10;55.70;;;;;;4978494;28;20197;-78
2023/08/01 11:45:11;;;;;;;2.05;1.85;;;25.10;55.50;;;;;;4978758;28;20193;-78
2023/08/01 11:47:39;;;;;;;1.98;1.80;;;25.10;55.40;;;;;;4978415;28;20201;-78
2023/08/01 11:50:07;;;;;;;1.42;1.30;;;25.20;55.50;;;;;;4978134;28;20196;-78
2023/08/01 11:52:36;;;;;;;1.90;1.70;;;25.10;55.30;;;;;;4978697;28;20304;-78
2023/08/01 11:55:02;;;;;;;1.40;1.30;;;25.20;55.30;;;;;;4962221;28;20196;-78
2023/08/01 11:57:31;;;;;;;1.60;1.50;;;25.20;55.20;;;;;;4978718;28;20300;-78
2023/08/01 11:59:58;;;;;;;1.40;1.30;;;25.20;55.10;;;;;;4994778;28;20259;-78
2023/08/01 12:02:25;;;;;;;1.55;1.45;;;25.20;55.00;;;;;;4978473;28;20233;-78
2023/08/01 12:04:52;;;;;;;1.42;1.30;;;25.20;54.80;;;;;;4978387;28;20288;-78
2023/08/01 12:07:20;;;;;;;1.40;1.30;;;25.20;54.70;;;;;;4991504;28;20185;-79
2023/08/01 12:09:57;;;;;;;1.52;1.42;;;25.20;54.60;;;;;;5001078;28;20193;-79
2023/08/01 12:12:27;;;;;;;1.77;1.63;;;25.30;54.50;;;;;;5000526;28;20260;-79
2023/08/01 12:14:54;;;;;;;1.67;1.58;;;25.30;54.50;;;;;;4998360;28;20228;-79
2023/08/01 12:17:21;;;;;;;1.55;1.45;;;25.30;54.40;;;;;;5020925;23;20233;-81
2023/08/01 12:19:48;;;;;;;1.60;1.40;;;25.30;54.30;;;;;;5010586;28;20255;-82
2023/08/01 12:22:15;;;;;;;1.67;1.58;;;25.30;54.30;;;;;;4978138;28;20204;-82
2023/08/01 12:24:43;;;;;;;1.60;1.50;;;25.40;54.30;;;;;;4978060;28;20197;-82
2023/08/01 12:27:12;;;;;;;1.40;1.30;;;25.40;53.90;;;;;;4994178;28;20710;-82
2023/08/01 12:29:39;;;;;;;1.42;1.30;;;25.40;54.10;;;;;;4994107;28;20185;-82
2023/08/01 12:32:07;;;;;;;1.40;1.30;;;25.40;53.80;;;;;;4978899;28;20230;-82
2023/08/01 12:34:34;;;;;;;2.17;1.30;;;25.40;53.80;;;;;;4995528;28;20196;-82
2023/08/01 12:37:02;;;;;;;1.30;1.20;;;25.40;53.80;;;;;;4994990;28;20200;-82
2023/08/01 12:39:29;;;;;;;1.55;1.45;;;25.40;53.60;;;;;;4994429;28;20200;-82
2023/08/01 12:41:56;;;;;;;1.60;1.50;;;25.40;53.60;;;;;;4995295;28;20684;-82
2023/08/01 12:44:25;;;;;;;2.33;1.40;;;25.40;53.60;;;;;;4994415;28;20197;-82
2023/08/01 12:46:52;;;;;;;1.65;1.55;;;25.40;53.60;;;;;;4994089;28;20243;-82
2023/08/01 12:49:19;;;;;;;1.95;1.65;;;25.40;53.60;;;;;;4994305;28;20662;-82